createdAt,value
2023-05-02T00:01:41.018Z,11.85
2023-05-02T00:05:06.202Z,11.85
2023-05-02T00:08:31.378Z,11.84
2023-05-02T00:11:56.609Z,11.82
2023-05-02T00:15:21.761Z,11.83
2023-05-02T00:18:46.922Z,11.8
2023-05-02T00:22:12.102Z,11.8
2023-05-02T00:25:37.274Z,11.77
2023-05-02T00:29:02.477Z,11.76
2023-05-02T00:32:27.673Z,11.75
2023-05-02T00:35:52.819Z,11.73
2023-05-02T00:39:18.010Z,11.72
2023-05-02T00:42:43.205Z,11.71
2023-05-02T00:46:08.440Z,11.73
2023-05-02T00:49:33.553Z,11.74
2023-05-02T00:52:58.720Z,11.76
2023-05-02T00:56:23.884Z,11.8
2023-05-02T00:59:49.069Z,11.78
2023-05-02T01:03:14.337Z,11.76
2023-05-02T01:06:39.588Z,11.73
2023-05-02T01:10:04.594Z,11.73
2023-05-02T01:13:29.782Z,11.74
2023-05-02T01:16:54.942Z,11.74
2023-05-02T01:20:20.243Z,11.74
2023-05-02T01:23:45.271Z,11.75
2023-05-02T01:27:10.478Z,11.74
2023-05-02T01:30:35.665Z,11.74
2023-05-02T01:34:00.823Z,11.74
2023-05-02T01:37:26.032Z,11.72
2023-05-02T01:40:51.160Z,11.7
2023-05-02T01:44:16.363Z,11.69
2023-05-02T01:47:41.545Z,11.72
2023-05-02T01:51:06.720Z,11.74
2023-05-02T01:54:31.916Z,11.74
2023-05-02T01:57:57.085Z,11.72
2023-05-02T02:01:22.304Z,11.7
2023-05-02T02:04:47.525Z,11.69
2023-05-02T02:08:13.273Z,11.7
2023-05-02T02:11:38.490Z,11.72
2023-05-02T02:15:03.644Z,11.74
2023-05-02T02:18:28.803Z,11.77
2023-05-02T02:21:53.989Z,11.8
2023-05-02T02:25:19.168Z,11.83
2023-05-02T02:28:44.374Z,11.83
2023-05-02T02:32:09.517Z,11.8
2023-05-02T02:35:34.795Z,11.82
2023-05-02T02:38:59.962Z,11.81
2023-05-02T02:42:25.143Z,11.81
2023-05-02T02:45:50.474Z,11.8
2023-05-02T02:49:15.485Z,11.8
2023-05-02T02:52:40.674Z,11.77
2023-05-02T02:56:05.869Z,11.77
2023-05-02T02:59:31.079Z,11.77
2023-05-02T03:02:56.325Z,11.78
2023-05-02T03:06:21.460Z,11.76
2023-05-02T03:09:46.574Z,11.76
2023-05-02T03:13:11.755Z,11.74
2023-05-02T03:16:37.007Z,11.71
2023-05-02T03:20:02.304Z,11.7
2023-05-02T03:23:27.282Z,11.7
2023-05-02T03:26:52.460Z,11.67
2023-05-02T03:30:17.641Z,11.65
2023-05-02T03:33:42.810Z,11.65
2023-05-02T03:37:08.020Z,11.61
2023-05-02T03:40:33.402Z,11.61
2023-05-02T03:43:58.593Z,11.7
2023-05-02T03:47:23.817Z,11.81
2023-05-02T03:51:03.957Z,11.9
2023-05-02T03:54:29.562Z,11.93
2023-05-02T03:57:55.049Z,11.86
2023-05-02T04:01:20.193Z,11.84
2023-05-02T04:04:45.444Z,11.83
2023-05-02T04:08:10.622Z,11.86
2023-05-02T04:11:35.831Z,11.89
2023-05-02T04:15:01.006Z,11.89
2023-05-02T04:18:26.173Z,11.91
2023-05-02T04:21:51.381Z,11.93
2023-05-02T04:25:16.551Z,11.96
2023-05-02T04:28:41.752Z,11.94
2023-05-02T04:32:06.872Z,11.94
2023-05-02T04:35:32.029Z,11.97
2023-05-02T04:38:57.229Z,11.97
2023-05-02T04:42:22.436Z,12.03
2023-05-02T04:45:47.663Z,12.05
2023-05-02T04:49:12.799Z,12.13
2023-05-02T04:52:38.003Z,12.24
2023-05-02T04:56:03.195Z,12.32
2023-05-02T04:59:28.347Z,12.36
2023-05-02T05:02:53.615Z,12.42
2023-05-02T05:06:18.723Z,12.47
2023-05-02T05:09:43.885Z,12.5
2023-05-02T05:13:09.053Z,12.47
2023-05-02T05:16:34.237Z,12.49
2023-05-02T05:19:59.591Z,12.55
2023-05-02T05:23:24.518Z,12.6
2023-05-02T05:26:49.678Z,12.63
2023-05-02T05:30:14.841Z,12.71
2023-05-02T05:33:40.040Z,12.79
2023-05-02T05:37:05.292Z,12.88
2023-05-02T05:40:30.341Z,12.97
2023-05-02T05:43:55.515Z,13.03
2023-05-02T05:47:20.748Z,13.03
2023-05-02T05:50:45.850Z,13
2023-05-02T05:54:11.070Z,13.01
2023-05-02T05:57:36.374Z,13.02
2023-05-02T06:01:01.604Z,13.05
2023-05-02T06:04:26.883Z,13.05
2023-05-02T06:07:52.083Z,13.09
2023-05-02T06:11:17.356Z,13.12
2023-05-02T06:14:42.513Z,13.16
2023-05-02T06:18:07.891Z,13.19
2023-05-02T06:21:32.974Z,13.23
2023-05-02T06:24:58.208Z,13.25
2023-05-02T06:28:23.492Z,13.25
2023-05-02T06:31:48.755Z,13.21
2023-05-02T06:35:13.991Z,13.1
2023-05-02T06:38:39.244Z,13.02
2023-05-02T06:42:04.462Z,13.01
2023-05-02T06:45:29.671Z,12.95
2023-05-02T06:48:54.895Z,12.88
2023-05-02T06:52:20.140Z,12.84
2023-05-02T06:55:45.329Z,12.83
2023-05-02T06:59:10.493Z,12.81
2023-05-02T07:02:35.742Z,12.77
2023-05-02T07:06:00.998Z,12.75
2023-05-02T07:09:26.202Z,12.71
2023-05-02T07:12:51.398Z,12.7
2023-05-02T07:16:16.612Z,12.69
2023-05-02T07:19:43.945Z,12.67
2023-05-02T07:23:06.985Z,12.6
2023-05-02T07:26:32.155Z,12.55
2023-05-02T07:29:57.400Z,12.55
2023-05-02T07:33:22.570Z,12.59
2023-05-02T07:36:47.843Z,12.69
2023-05-02T07:40:12.990Z,12.77
2023-05-02T07:43:38.261Z,12.83
2023-05-02T07:47:03.461Z,12.87
2023-05-02T07:50:28.683Z,12.94
2023-05-02T07:53:53.949Z,12.93
2023-05-02T07:57:19.161Z,12.89
2023-05-02T08:00:44.390Z,12.95
2023-05-02T08:04:09.875Z,13.08
2023-05-02T08:07:34.991Z,13.18
2023-05-02T08:11:00.228Z,13.3
2023-05-02T08:14:26.262Z,13.44
2023-05-02T08:17:51.574Z,13.57
2023-05-02T08:21:16.747Z,13.63
2023-05-02T08:24:42.054Z,13.72
2023-05-02T08:28:07.345Z,13.8
2023-05-02T08:31:32.615Z,13.85
2023-05-02T08:34:57.773Z,13.93
2023-05-02T08:38:23.030Z,13.98
2023-05-02T08:41:48.218Z,14
2023-05-02T08:45:14.856Z,14.03
2023-05-02T08:48:38.786Z,14.06
2023-05-02T08:52:03.980Z,14.02
2023-05-02T08:55:29.156Z,14.03
2023-05-02T08:58:55.187Z,14.06
2023-05-02T09:02:20.478Z,14.05
2023-05-02T09:05:45.704Z,14.11
2023-05-02T09:09:10.907Z,14.16
2023-05-02T09:12:36.112Z,14.23
2023-05-02T09:16:01.417Z,14.28
2023-05-02T09:19:26.811Z,14.3
2023-05-02T09:22:52.041Z,14.36
2023-05-02T09:26:17.231Z,14.41
2023-05-02T09:29:42.425Z,14.43
2023-05-02T09:33:07.702Z,14.48
2023-05-02T09:36:32.953Z,14.54
2023-05-02T09:39:58.112Z,14.62
2023-05-02T09:43:23.361Z,14.67
2023-05-02T09:46:48.615Z,14.7
2023-05-02T09:50:13.881Z,14.7
2023-05-02T09:53:39.166Z,14.66
2023-05-02T09:57:04.415Z,14.61
2023-05-02T10:00:29.623Z,14.53
2023-05-02T10:03:54.963Z,14.53
2023-05-02T10:07:20.153Z,14.56
2023-05-02T10:10:45.438Z,14.63
2023-05-02T10:14:10.687Z,14.77
2023-05-02T10:17:36.238Z,14.86
2023-05-02T10:21:03.799Z,14.9
2023-05-02T10:24:29.031Z,14.87
2023-05-02T10:27:54.356Z,14.89
2023-05-02T10:31:19.641Z,14.92
2023-05-02T10:34:44.829Z,14.88
2023-05-02T10:38:10.059Z,14.82
2023-05-02T10:41:35.289Z,14.88
2023-05-02T10:45:00.752Z,15.03
2023-05-02T10:48:25.756Z,15.17
2023-05-02T10:51:50.995Z,15.25
2023-05-02T10:55:16.310Z,15.34
2023-05-02T10:58:41.560Z,15.37
2023-05-02T11:02:07.254Z,15.43
2023-05-02T11:05:32.047Z,15.5
2023-05-02T11:08:57.817Z,15.55
2023-05-02T11:12:23.076Z,15.6
2023-05-02T11:15:48.328Z,15.69
2023-05-02T11:19:13.586Z,15.87
2023-05-02T11:22:38.791Z,16.120001
2023-05-02T11:26:04.046Z,16.379999
2023-05-02T11:29:29.319Z,16.379999
2023-05-02T11:32:54.609Z,16.43
2023-05-02T11:36:19.871Z,16.68
2023-05-02T11:39:45.127Z,16.76
2023-05-02T11:43:10.337Z,16.82
2023-05-02T11:46:35.616Z,16.91
2023-05-02T11:50:00.831Z,17.07
2023-05-02T11:53:26.104Z,17.209999
2023-05-02T11:56:51.336Z,17.299999
2023-05-02T12:00:16.601Z,17.25
2023-05-02T12:03:55.455Z,17.08
2023-05-02T12:07:21.210Z,17.01
2023-05-02T12:10:46.510Z,17.01
2023-05-02T12:14:12.701Z,17.030001
2023-05-02T12:17:51.039Z,17.02
2023-05-02T12:21:30.065Z,17.09
2023-05-02T12:24:55.754Z,17.18
2023-05-02T12:28:21.096Z,16.98
2023-05-02T12:31:46.631Z,16.950001
2023-05-02T12:35:11.882Z,16.969999
2023-05-02T12:38:37.130Z,16.950001
2023-05-02T12:42:02.416Z,16.940001
2023-05-02T12:45:27.703Z,16.959999
2023-05-02T12:48:53.044Z,16.969999
2023-05-02T12:52:18.352Z,16.940001
2023-05-02T12:55:43.806Z,16.85
2023-05-02T12:59:09.082Z,16.540001
2023-05-02T13:02:34.491Z,15.95
2023-05-02T13:05:59.766Z,15.46
2023-05-02T13:09:25.080Z,15.08
2023-05-02T13:12:50.524Z,14.83
2023-05-02T13:16:15.912Z,14.7
2023-05-02T13:19:47.641Z,14.53
2023-05-02T13:23:06.529Z,14.4
2023-05-02T13:26:31.827Z,14.26
2023-05-02T13:29:57.184Z,14.11
2023-05-02T13:33:22.548Z,14.02
2023-05-02T13:36:47.910Z,14.01
2023-05-02T13:40:13.181Z,13.94
2023-05-02T13:43:38.464Z,13.96
2023-05-02T13:47:03.807Z,14.08
2023-05-02T13:50:29.053Z,14.23
2023-05-02T13:53:54.332Z,14.38
2023-05-02T13:57:19.547Z,14.46
2023-05-02T14:00:44.816Z,14.53
2023-05-02T14:04:10.200Z,14.62
2023-05-02T14:07:35.289Z,14.68
2023-05-02T14:11:00.578Z,14.75
2023-05-02T14:14:25.811Z,14.74
2023-05-02T14:17:51.118Z,14.76
2023-05-02T14:21:16.336Z,14.8
2023-05-02T14:24:41.696Z,14.84
2023-05-02T14:28:06.962Z,14.86
2023-05-02T14:31:32.259Z,14.88
2023-05-02T14:34:57.692Z,14.85
2023-05-02T14:38:22.984Z,14.78
2023-05-02T14:41:48.272Z,14.74
2023-05-02T14:45:13.686Z,14.7
2023-05-02T14:48:39.010Z,14.64
2023-05-02T14:52:04.293Z,14.56
2023-05-02T14:55:29.599Z,14.53
2023-05-02T14:58:54.931Z,14.51
2023-05-02T15:02:20.254Z,14.47
2023-05-02T15:05:45.442Z,14.43
2023-05-02T15:40:07.110Z,11.86
2023-05-02T15:43:32.407Z,12.85
2023-05-02T15:46:57.744Z,13.07
2023-05-02T15:50:23.070Z,13.24
2023-05-02T15:53:48.410Z,13.43
2023-05-02T15:57:13.771Z,13.56
2023-05-02T16:00:39.039Z,13.65
2023-05-02T16:04:04.362Z,13.75
2023-05-02T16:07:29.684Z,13.9
2023-05-02T16:10:55.012Z,14.04
2023-05-02T16:14:20.323Z,14.13
2023-05-02T16:17:46.423Z,14.16
2023-05-02T16:21:11.762Z,14.15
2023-05-02T16:24:37.078Z,14.1
2023-05-02T16:28:02.468Z,14.01
2023-05-02T16:31:27.874Z,13.93
2023-05-02T16:34:53.134Z,13.78
2023-05-02T16:38:18.579Z,13.65
2023-05-02T16:41:43.842Z,13.56
2023-05-02T16:45:09.129Z,13.45
2023-05-02T16:48:34.422Z,13.32
2023-05-02T16:51:59.641Z,13.14
2023-05-02T16:55:24.896Z,12.96
2023-05-02T16:58:50.316Z,12.84
2023-05-02T17:02:15.691Z,12.76
2023-05-02T17:05:40.991Z,12.7
2023-05-02T17:09:06.261Z,12.68
2023-05-02T17:12:31.630Z,12.63
2023-05-02T17:15:56.938Z,12.56
2023-05-02T17:19:22.231Z,12.51
2023-05-02T17:22:47.561Z,12.53
2023-05-02T17:26:12.796Z,12.48
2023-05-02T17:29:38.056Z,12.43
2023-05-02T17:33:03.396Z,12.43
2023-05-02T17:36:28.657Z,12.42
2023-05-02T17:39:53.982Z,12.42
2023-05-02T17:43:19.207Z,12.47
2023-05-02T17:46:44.660Z,12.5
2023-05-02T17:50:09.797Z,12.54
2023-05-02T17:53:35.028Z,12.55
2023-05-02T17:57:00.309Z,12.52
2023-05-02T18:00:25.528Z,12.43
2023-05-02T18:05:20.319Z,12.37
2023-05-02T18:08:45.505Z,12.37
2023-05-02T18:12:10.738Z,12.32
2023-05-02T18:15:35.927Z,12.31
2023-05-02T18:19:01.114Z,12.31
2023-05-02T18:22:26.400Z,12.27
2023-05-02T18:25:51.597Z,12.24
2023-05-02T18:29:16.847Z,12.11
2023-05-02T18:32:42.058Z,11.99
2023-05-02T18:36:07.214Z,11.85
2023-05-02T18:39:32.425Z,11.74
2023-05-02T18:42:57.646Z,11.63
2023-05-02T18:46:22.946Z,11.51
2023-05-02T18:49:48.141Z,11.48
2023-05-02T18:53:13.383Z,11.47
2023-05-02T18:56:38.591Z,11.4
2023-05-02T19:00:03.835Z,11.34
2023-05-02T19:03:29.194Z,11.26
2023-05-02T19:06:54.398Z,11.23
2023-05-02T19:10:19.671Z,11.23
2023-05-02T19:13:44.929Z,11.21
2023-05-02T19:17:10.193Z,11.16
2023-05-02T19:20:35.482Z,11.14
2023-05-02T19:24:00.685Z,11.12
2023-05-02T19:27:25.950Z,11.08
2023-05-02T19:30:51.238Z,11.1
2023-05-02T19:34:16.476Z,11.09
2023-05-02T19:37:41.741Z,11.1
2023-05-02T19:41:06.935Z,11.13
2023-05-02T19:44:32.171Z,11.1
2023-05-02T19:47:57.476Z,11.08
2023-05-02T19:51:22.677Z,11.12
2023-05-02T19:54:48.022Z,11.16
2023-05-02T19:58:13.247Z,11.16
2023-05-02T20:01:38.553Z,11.17
2023-05-02T20:05:03.737Z,11.24
2023-05-02T20:08:29.004Z,11.29
2023-05-02T20:11:54.281Z,11.34
2023-05-02T20:15:19.459Z,11.37
2023-05-02T20:18:44.759Z,11.33
2023-05-02T20:22:10.042Z,11.26
2023-05-02T20:25:35.284Z,11.24
2023-05-02T20:29:00.654Z,11.22
2023-05-02T20:32:25.900Z,11.23
2023-05-02T20:35:51.123Z,11.26
2023-05-02T20:39:16.365Z,11.25
2023-05-02T20:42:41.641Z,11.21
2023-05-02T20:46:06.900Z,11.16
2023-05-02T20:49:32.075Z,11.1
2023-05-02T20:52:57.297Z,11.07
2023-05-02T20:56:22.483Z,11.05
2023-05-02T20:59:47.710Z,11
2023-05-02T21:03:12.954Z,10.99
2023-05-02T21:06:38.147Z,10.96
2023-05-02T21:10:03.607Z,10.95
2023-05-02T21:13:28.497Z,10.92
2023-05-02T21:16:53.765Z,10.86
2023-05-02T21:20:18.967Z,10.84
2023-05-02T21:23:44.155Z,10.88
2023-05-02T21:27:09.370Z,10.86
2023-05-02T21:30:34.594Z,10.81
2023-05-02T21:33:59.780Z,10.8
2023-05-02T21:37:25.009Z,10.78
2023-05-02T21:40:50.173Z,10.73
2023-05-02T21:44:15.385Z,10.67
2023-05-02T21:47:40.609Z,10.68
2023-05-02T21:51:05.832Z,10.7
2023-05-02T21:54:31.053Z,10.73
2023-05-02T21:57:56.250Z,10.8
2023-05-02T22:01:21.517Z,10.84
2023-05-02T22:04:46.717Z,10.91
2023-05-02T22:08:11.915Z,10.99
2023-05-02T22:11:37.150Z,11.05
2023-05-02T22:15:02.329Z,11.07
2023-05-02T22:18:27.514Z,11.09
2023-05-02T22:21:52.752Z,11.1
2023-05-02T22:25:17.955Z,11.09
2023-05-02T22:28:43.200Z,11.11
2023-05-02T22:32:08.459Z,11.13
2023-05-02T22:35:33.602Z,11.11
2023-05-02T22:38:58.820Z,11.13
2023-05-02T22:42:24.075Z,11.15
2023-05-02T22:45:49.307Z,11.16
2023-05-02T22:49:14.470Z,11.16
2023-05-02T22:52:39.683Z,11.17
2023-05-02T22:56:04.913Z,11.16
2023-05-02T22:59:30.140Z,11.13
2023-05-02T23:02:55.444Z,11.09
2023-05-02T23:06:20.633Z,11.09
2023-05-02T23:09:45.780Z,11.1
2023-05-02T23:13:11.009Z,11.06
2023-05-02T23:16:36.244Z,11.04
2023-05-02T23:20:01.613Z,11.02
2023-05-02T23:23:26.647Z,10.97
2023-05-02T23:26:51.846Z,10.95
2023-05-02T23:30:17.065Z,10.87
2023-05-02T23:33:42.284Z,10.8
2023-05-02T23:37:07.530Z,10.7
2023-05-02T23:40:32.724Z,10.59
2023-05-02T23:43:57.914Z,10.5
2023-05-02T23:47:23.169Z,10.39
2023-05-02T23:50:48.381Z,10.26
2023-05-02T23:54:13.608Z,10.13
2023-05-02T23:57:38.821Z,10.06
